createdAt,value
2022-12-14T04:04:35.779Z,89.85
2022-12-14T04:07:56.870Z,89.88
2022-12-14T04:11:20.952Z,89.42
2022-12-14T04:14:46.915Z,89.17
2022-12-14T04:18:12.144Z,88.71
2022-12-14T04:21:32.210Z,88.75
2022-12-14T04:24:57.988Z,88.73
2022-12-14T04:28:34.525Z,89.31
2022-12-14T04:31:50.463Z,89.29
2022-12-14T04:35:06.694Z,89.29
2022-12-14T04:38:23.703Z,89.52
2022-12-14T04:41:37.705Z,89.21
2022-12-14T04:44:53.461Z,89.35
2022-12-14T04:48:14.441Z,88.99
2022-12-14T04:51:31.440Z,88.96
2022-12-14T04:54:47.732Z,89.52
2022-12-14T04:58:02.275Z,88.93
2022-12-14T05:01:27.294Z,89.31
2022-12-14T05:04:55.244Z,89.25
2022-12-14T05:08:12.820Z,89.04
2022-12-14T05:11:52.665Z,89.61
2022-12-14T05:15:07.253Z,90.08
2022-12-14T05:18:18.312Z,91.04
2022-12-14T05:21:40.090Z,92.00
2022-12-14T05:24:50.894Z,93.21
2022-12-14T05:28:02.814Z,94.23
2022-12-14T05:31:13.641Z,94.67
2022-12-14T05:34:25.522Z,95.29
2022-12-14T05:37:37.314Z,96.29
2022-12-14T05:40:48.048Z,97.28
2022-12-14T05:43:59.964Z,97.68
2022-12-14T05:47:10.806Z,97.36
2022-12-14T05:50:21.677Z,96.52
2022-12-14T05:53:32.633Z,96.43
2022-12-14T05:56:43.416Z,96.57
2022-12-14T05:59:55.307Z,96.38
2022-12-14T07:39:47.029Z,97.83
2022-12-14T07:42:57.882Z,97.48
2022-12-14T07:46:10.282Z,97.30
2022-12-14T07:49:20.966Z,97.53
2022-12-14T07:52:37.292Z,97.28
2022-12-14T07:55:49.637Z,98.95
2022-12-14T07:59:01.429Z,100.00
2022-12-14T08:02:12.770Z,100.00
2022-12-14T08:05:23.534Z,100.00
2022-12-14T08:08:34.208Z,99.86
2022-12-14T08:11:46.718Z,100.00
2022-12-14T08:14:57.309Z,100.00
2022-12-14T08:18:08.410Z,100.00
2022-12-14T08:21:21.900Z,100.00
2022-12-14T08:24:32.550Z,100.00
2022-12-14T08:27:44.460Z,100.00
2022-12-14T08:30:56.216Z,100.00
2022-12-14T08:34:06.918Z,100.00
2022-12-14T08:37:17.441Z,100.00
2022-12-14T08:40:28.603Z,100.00
2022-12-14T08:43:41.666Z,100.00
2022-12-14T08:46:52.402Z,100.00
2022-12-14T08:50:03.268Z,100.00
2022-12-14T08:53:13.781Z,100.00
2022-12-14T08:56:26.495Z,100.00
2022-12-14T09:00:00.701Z,100.00
2022-12-14T09:03:08.939Z,100.00
2022-12-14T09:06:24.712Z,100.00
2022-12-14T09:09:37.318Z,100.00
2022-12-14T09:12:48.534Z,100.00
2022-12-14T09:16:02.373Z,100.00
2022-12-14T09:19:13.254Z,100.00
2022-12-14T09:22:24.566Z,100.00
2022-12-14T09:25:35.632Z,100.00
2022-12-14T09:28:48.952Z,100.00
2022-12-14T09:32:01.141Z,100.00
2022-12-14T09:35:12.496Z,100.00
2022-12-14T09:38:23.741Z,100.00
2022-12-14T09:41:51.785Z,100.00
2022-12-14T09:45:17.618Z,100.00
2022-12-14T09:48:30.322Z,100.00
2022-12-14T09:51:41.604Z,100.00
2022-12-14T09:54:52.603Z,100.00
2022-12-14T09:58:08.783Z,100.00
2022-12-14T10:01:43.558Z,100.00
2022-12-14T10:05:06.874Z,99.63
2022-12-14T10:08:25.234Z,99.53
2022-12-14T10:11:44.366Z,99.14
2022-12-14T10:15:05.488Z,98.33
2022-12-14T10:18:58.411Z,97.66
2022-12-14T10:22:12.228Z,98.51
2022-12-14T10:25:26.212Z,97.96
2022-12-14T10:28:44.874Z,97.70
2022-12-14T10:32:04.650Z,98.43
2022-12-14T10:35:16.168Z,98.09
2022-12-14T10:38:39.713Z,98.51
2022-12-14T10:41:58.766Z,97.98
2022-12-14T10:45:40.217Z,97.68
2022-12-14T10:48:57.865Z,98.15
2022-12-14T10:52:15.020Z,99.54
2022-12-14T10:55:35.477Z,99.75
2022-12-14T10:58:46.355Z,99.70
2022-12-14T11:02:04.119Z,99.96
2022-12-14T11:05:24.172Z,100.00
2022-12-14T11:08:41.045Z,100.00
2022-12-14T11:11:59.529Z,100.00
2022-12-14T11:15:25.772Z,99.91
2022-12-14T11:18:36.382Z,98.90
2022-12-14T11:21:50.104Z,100.00
2022-12-14T11:25:01.094Z,100.00
2022-12-14T11:28:35.953Z,100.00
2022-12-14T11:31:49.551Z,100.00
2022-12-14T11:35:00.946Z,99.57
2022-12-14T11:38:17.247Z,98.98
2022-12-14T11:41:32.981Z,97.96
2022-12-14T11:44:46.082Z,97.46
2022-12-14T11:48:12.892Z,96.50
2022-12-14T11:51:23.514Z,95.83
2022-12-14T11:54:35.041Z,94.52
2022-12-14T11:57:50.326Z,95.10
2022-12-14T12:01:06.307Z,95.75
2022-12-14T12:04:18.882Z,96.65
2022-12-14T12:07:33.658Z,96.57
2022-12-14T12:10:50.225Z,96.32
2022-12-14T12:14:02.619Z,96.17
2022-12-14T12:17:20.417Z,95.73
2022-12-14T12:20:35.517Z,95.33
2022-12-14T12:23:52.322Z,96.15
2022-12-14T12:27:11.281Z,95.37
2022-12-14T12:30:28.378Z,95.49
2022-12-14T12:33:45.477Z,95.01
2022-12-14T12:37:25.180Z,95.57
2022-12-14T12:40:32.891Z,94.95
2022-12-14T12:43:50.522Z,93.89
2022-12-14T12:47:24.772Z,93.00
2022-12-14T12:50:43.318Z,92.45
2022-12-14T12:54:02.864Z,91.90
2022-12-14T12:57:14.278Z,92.88
2022-12-14T13:00:26.259Z,92.47
2022-12-14T13:03:39.880Z,93.38
2022-12-14T13:06:54.836Z,93.43
2022-12-14T13:10:12.905Z,93.31
2022-12-14T13:13:25.603Z,93.22
2022-12-14T13:16:39.786Z,93.54
2022-12-14T13:19:54.166Z,94.02
2022-12-14T13:23:44.211Z,93.86
2022-12-14T13:27:01.304Z,93.95
2022-12-14T13:30:21.605Z,94.62
2022-12-14T13:33:46.549Z,95.10
2022-12-14T13:37:18.121Z,96.09
2022-12-14T13:40:44.888Z,96.79
2022-12-14T13:44:12.449Z,96.49
2022-12-14T13:47:26.661Z,96.01
2022-12-14T13:50:54.237Z,95.26
2022-12-14T13:54:21.865Z,95.00
2022-12-14T13:57:32.707Z,95.04
2022-12-14T14:00:52.520Z,95.62
2022-12-14T14:04:21.476Z,96.24
2022-12-14T14:07:50.170Z,95.06
2022-12-14T14:11:36.433Z,95.05
2022-12-14T14:14:53.429Z,95.04
2022-12-14T14:18:14.313Z,94.16
2022-12-14T14:21:32.217Z,94.93
2022-12-14T14:24:56.499Z,95.37
2022-12-14T14:28:06.443Z,95.19
2022-12-14T14:31:17.221Z,95.40
2022-12-14T14:34:37.288Z,94.74
2022-12-14T14:37:56.596Z,95.03
2022-12-14T14:41:17.114Z,95.20
2022-12-14T14:44:35.998Z,95.33
2022-12-14T14:47:56.462Z,94.49
2022-12-14T14:51:17.213Z,95.02
2022-12-14T14:55:10.778Z,95.45
2022-12-14T14:58:01.743Z,95.51
2022-12-14T15:01:21.601Z,96.26
2022-12-14T15:04:44.673Z,95.12
2022-12-14T15:07:56.220Z,96.36
2022-12-14T15:11:14.793Z,96.24
2022-12-14T15:14:35.067Z,95.76
2022-12-14T15:17:44.572Z,96.05
2022-12-14T15:21:00.815Z,96.13
2022-12-14T15:24:13.881Z,96.32
2022-12-14T15:27:27.912Z,96.13
2022-12-14T15:30:37.565Z,96.36
2022-12-14T15:33:48.817Z,95.99
2022-12-14T15:36:59.656Z,96.32
2022-12-14T15:40:13.740Z,96.54
2022-12-14T15:43:24.534Z,96.95
2022-12-14T15:46:38.509Z,96.34
2022-12-14T15:49:48.013Z,96.82
2022-12-14T15:53:07.506Z,96.67
2022-12-14T15:56:24.337Z,96.51
2022-12-14T15:59:36.937Z,96.42
2022-12-14T16:02:46.554Z,96.37
2022-12-14T16:05:56.932Z,96.12
2022-12-14T16:09:12.866Z,96.41
2022-12-14T16:12:28.348Z,96.38
2022-12-14T16:15:38.041Z,96.80
2022-12-14T16:18:50.874Z,97.11
2022-12-14T16:22:19.868Z,96.76
2022-12-14T16:25:32.391Z,96.94
2022-12-14T16:28:42.306Z,96.88
2022-12-14T16:31:51.870Z,96.71
2022-12-14T16:35:02.340Z,96.56
2022-12-14T16:38:14.707Z,97.02
2022-12-14T16:41:37.363Z,96.38
2022-12-14T16:44:46.982Z,96.57
2022-12-14T16:48:07.596Z,97.23
2022-12-14T16:51:38.421Z,96.71
2022-12-14T16:55:09.819Z,96.71
2022-12-14T16:58:20.620Z,97.09
2022-12-14T17:01:40.525Z,96.68
2022-12-14T17:04:50.335Z,97.85
2022-12-14T17:08:00.170Z,98.15
2022-12-14T17:11:13.292Z,98.13
2022-12-14T17:14:24.069Z,97.93
2022-12-14T17:17:37.931Z,97.71
2022-12-14T17:20:47.444Z,97.19
2022-12-14T17:23:57.660Z,95.94
2022-12-14T17:27:07.239Z,95.35
2022-12-14T17:30:22.565Z,96.15
2022-12-14T17:33:32.738Z,96.71
2022-12-14T17:36:42.770Z,96.54
2022-12-14T17:39:53.061Z,96.25
2022-12-14T17:43:02.824Z,96.52
2022-12-14T17:46:13.624Z,96.10
2022-12-14T17:49:34.673Z,95.80
2022-12-14T17:52:44.950Z,96.53
2022-12-14T17:55:54.448Z,96.61
2022-12-14T17:59:03.927Z,96.59
2022-12-14T18:02:26.404Z,96.43
2022-12-14T18:05:36.060Z,96.87
2022-12-14T18:08:46.607Z,97.40
2022-12-14T18:12:22.010Z,97.80
2022-12-14T18:15:28.579Z,98.00
2022-12-14T18:18:39.932Z,98.04
2022-12-14T18:21:49.344Z,98.07
2022-12-14T18:24:59.187Z,98.21
2022-12-14T18:28:10.064Z,97.13
2022-12-14T18:31:24.602Z,97.64
2022-12-14T18:34:35.286Z,97.33
2022-12-14T18:37:44.834Z,96.99
2022-12-14T18:41:01.575Z,96.74
2022-12-14T18:44:11.648Z,96.81
2022-12-14T18:47:41.168Z,97.08
2022-12-14T18:50:53.921Z,97.00
2022-12-14T18:54:03.777Z,96.75
2022-12-14T18:57:13.375Z,96.03
2022-12-14T19:00:24.637Z,95.89
2022-12-14T19:03:35.440Z,96.25
2022-12-14T19:06:46.557Z,95.58
2022-12-14T19:09:56.174Z,95.99
2022-12-14T19:13:06.029Z,95.93
2022-12-14T19:16:17.135Z,95.77
2022-12-14T19:19:36.903Z,95.59
2022-12-14T19:22:54.452Z,95.38
2022-12-14T19:26:06.554Z,95.58
2022-12-14T19:29:18.313Z,95.65
2022-12-14T19:32:30.665Z,95.53
2022-12-14T19:35:42.302Z,95.33
2022-12-14T19:38:55.220Z,95.46
2022-12-14T19:42:06.784Z,95.57
2022-12-14T19:45:17.431Z,95.06
2022-12-14T19:48:27.028Z,95.28
2022-12-14T19:51:36.521Z,95.36
2022-12-14T19:54:47.194Z,95.20
2022-12-14T19:57:56.940Z,95.30
2022-12-14T20:01:08.943Z,95.33
2022-12-14T20:04:18.492Z,95.37
2022-12-14T20:07:28.003Z,94.90
2022-12-14T20:10:38.707Z,95.17
2022-12-14T20:13:53.184Z,94.58
2022-12-14T20:17:06.621Z,95.38
2022-12-14T20:20:16.182Z,95.36
2022-12-14T20:23:25.614Z,95.50
2022-12-14T20:26:36.501Z,95.97
2022-12-14T20:29:46.057Z,96.91
2022-12-14T20:32:55.628Z,96.40
2022-12-14T20:36:05.566Z,95.62
2022-12-14T20:39:15.305Z,95.87
2022-12-14T20:42:26.113Z,95.48
2022-12-14T20:45:38.401Z,95.56
2022-12-14T20:48:48.260Z,96.24
2022-12-14T20:51:58.116Z,96.45
2022-12-14T20:55:08.101Z,96.39
2022-12-14T20:58:18.943Z,97.23
2022-12-14T21:01:28.772Z,97.32
2022-12-14T21:04:38.389Z,97.73
2022-12-14T21:07:48.108Z,96.89
2022-12-14T21:11:21.859Z,96.86
2022-12-14T21:14:34.911Z,96.84
2022-12-14T21:17:44.718Z,96.69
2022-12-14T21:20:54.183Z,97.13
2022-12-14T21:24:03.740Z,97.90
2022-12-14T21:27:16.765Z,98.86
2022-12-14T21:30:27.466Z,98.12
2022-12-14T21:33:39.419Z,97.81
2022-12-14T21:36:48.997Z,97.83
2022-12-14T21:39:58.578Z,97.66
2022-12-14T21:43:07.102Z,97.30
2022-12-14T21:46:18.350Z,97.47
2022-12-14T21:49:27.926Z,97.95
2022-12-14T21:52:37.411Z,98.72
2022-12-14T21:55:49.813Z,99.24
2022-12-14T21:58:58.555Z,99.16
2022-12-14T22:02:13.843Z,98.67
2022-12-14T22:05:23.801Z,98.89
2022-12-14T22:08:33.500Z,99.02
2022-12-14T22:11:43.367Z,98.50
2022-12-14T22:14:53.173Z,98.38
2022-12-14T22:18:04.057Z,98.55
2022-12-14T22:21:14.217Z,98.44
2022-12-14T22:24:24.980Z,98.67
2022-12-14T22:27:34.428Z,98.63
2022-12-14T22:30:43.932Z,98.30
